Strona główna
METAR-TAF:

METAR-TAF

Lotnisko :

Tweed New Haven Regional Airport

New Haven, Connecticut, Stany Zjednoczone

Szerokość geograficzna: 41-15-50N, Długość geograficzna: 072-53-14W, wysokość: 4 m

Aktualna obserwacja pogody

Raport powstał 58 minut temu, godzina 19:53 UTC
Wiatr 6 kt od północny zachód
Temperatura 3°C
Wilgotność 41%
Ciśnienie 1017 hPa
Widzialność: 16.1 km
bezchmurnie

METAR: KHVN 251953Z COR 31006KT 10SM CLR 03/M09 A3004 RMK AO2 SLP173 T00331094

czas: 15:51 (20:51 UTC)


TAF: brakujący

Obserwacja i prognoza pogody dla ponad 4000 lotnisk (raport METAR i TAF).

Dostępne stacje oznaczono żółtymi i czerwonymi punktami na mapie.

Najedź kursorem aby zobaczyć nazwę stacji.

Kliknij aby zobaczyć obserwacje i prognozy pogody.

Aby zmienić mapę: kliknij na zielony przycisk z czarnym krzyżykiem, aby powiększyć; na zielony przycisk z myślnikiem, aby pomniejszyć; na zielone strzałki, aby przejść do map sąsiednich.


METAR-TAF: